createdAt,value
2023-07-12T00:00:05.014Z,28.22
2023-07-12T00:01:05.132Z,28.21
2023-07-12T00:02:05.364Z,28.19
2023-07-12T00:03:05.616Z,28.19
2023-07-12T00:04:05.746Z,28.16
2023-07-12T00:05:05.870Z,28.15
2023-07-12T00:06:06.018Z,28.16
2023-07-12T00:07:06.211Z,28.16
2023-07-12T00:08:06.415Z,28.16
2023-07-12T00:09:06.605Z,28.15
2023-07-12T00:10:06.770Z,28.16
2023-07-12T00:11:07.170Z,28.16
2023-07-12T00:12:07.206Z,28.13
2023-07-12T00:13:07.370Z,28.13
2023-07-12T00:14:07.537Z,28.13
2023-07-12T00:15:07.737Z,28.08
2023-07-12T00:16:07.944Z,28.08
2023-07-12T00:17:08.141Z,28.06
2023-07-12T00:18:08.426Z,28.08
2023-07-12T00:19:08.640Z,28.07
2023-07-12T00:20:08.702Z,28.07
2023-07-12T00:21:09.155Z,28.06
2023-07-12T00:22:09.067Z,28.06
2023-07-12T00:23:09.271Z,28.03
2023-07-12T00:24:09.428Z,28.04
2023-07-12T00:25:09.622Z,28.01
2023-07-12T00:26:09.811Z,28.01
2023-07-12T00:28:10.215Z,28.01
2023-07-12T00:29:10.422Z,27.99
2023-07-12T00:30:10.560Z,27.97
2023-07-12T00:31:11.122Z,27.95
2023-07-12T00:32:10.949Z,27.95
2023-07-12T00:33:11.132Z,27.95
2023-07-12T00:34:11.321Z,27.92
2023-07-12T00:35:11.486Z,27.95
2023-07-12T00:36:11.740Z,27.92
2023-07-12T00:37:11.866Z,27.92
2023-07-12T00:38:12.031Z,27.91
2023-07-12T00:39:12.206Z,27.91
2023-07-12T00:40:12.510Z,27.91
2023-07-12T00:41:12.575Z,27.89
2023-07-12T00:42:12.735Z,27.89
2023-07-12T00:43:12.952Z,27.88
2023-07-12T00:44:13.125Z,27.89
2023-07-12T00:45:13.343Z,27.85
2023-07-12T00:46:13.500Z,27.84
2023-07-12T00:47:13.673Z,27.82
2023-07-12T00:48:13.862Z,27.85
2023-07-12T00:49:14.015Z,27.81
2023-07-12T00:50:14.268Z,27.82
2023-07-12T00:51:14.414Z,27.79
2023-07-12T00:52:14.609Z,27.79
2023-07-12T00:53:14.816Z,27.79
2023-07-12T00:54:15.024Z,27.79
2023-07-12T00:55:15.165Z,27.78
2023-07-12T00:56:15.349Z,27.78
2023-07-12T00:57:15.538Z,27.78
2023-07-12T00:58:15.748Z,27.76
2023-07-12T00:59:15.922Z,27.79
2023-07-12T01:00:16.097Z,27.78
2023-07-12T01:01:16.332Z,27.76
2023-07-12T01:02:16.491Z,27.78
2023-07-12T01:03:16.771Z,27.74
2023-07-12T01:04:16.833Z,27.74
2023-07-12T01:05:17.104Z,27.76
2023-07-12T01:06:17.238Z,27.73
2023-07-12T01:07:17.392Z,27.74
2023-07-12T01:08:17.615Z,27.70
2023-07-12T01:09:17.804Z,27.73
2023-07-12T01:10:17.988Z,27.73
2023-07-12T01:11:18.194Z,27.74
2023-07-12T01:12:18.353Z,27.73
2023-07-12T01:13:18.609Z,27.74
2023-07-12T01:14:18.753Z,27.74
2023-07-12T01:15:18.940Z,27.71
2023-07-12T01:16:19.226Z,27.71
2023-07-12T01:17:19.319Z,27.70
2023-07-12T01:18:19.613Z,27.73
2023-07-12T01:19:19.686Z,27.71
2023-07-12T01:20:19.872Z,27.70
2023-07-12T01:21:20.038Z,27.73
2023-07-12T01:22:20.254Z,27.70
2023-07-12T01:23:20.422Z,27.70
2023-07-12T01:24:20.600Z,27.67
2023-07-12T01:25:20.834Z,27.66
2023-07-12T01:26:20.977Z,27.69
2023-07-12T01:27:21.200Z,27.66
2023-07-12T01:28:21.323Z,27.67
2023-07-12T01:29:21.472Z,27.67
2023-07-12T01:30:21.625Z,27.66
2023-07-12T01:31:21.863Z,27.70
2023-07-12T01:32:22.053Z,27.71
2023-07-12T01:33:22.174Z,27.69
2023-07-12T01:34:22.395Z,27.67
2023-07-12T01:35:22.538Z,27.69
2023-07-12T01:36:22.741Z,27.69
2023-07-12T01:37:22.943Z,27.67
2023-07-12T01:38:23.109Z,27.67
2023-07-12T01:39:23.313Z,27.66
2023-07-12T01:40:23.511Z,27.64
2023-07-12T01:41:23.695Z,27.64
2023-07-12T01:42:23.896Z,27.64
2023-07-12T01:43:24.052Z,27.64
2023-07-12T01:44:24.267Z,27.63
2023-07-12T01:45:24.471Z,27.63
2023-07-12T01:46:24.650Z,27.62
2023-07-12T01:47:24.871Z,27.62
2023-07-12T01:48:25.015Z,27.62
2023-07-12T01:49:25.202Z,27.62
2023-07-12T01:50:25.387Z,27.62
2023-07-12T01:51:25.543Z,27.60
2023-07-12T01:52:25.747Z,27.58
2023-07-12T01:53:25.920Z,27.60
2023-07-12T01:54:26.101Z,27.58
2023-07-12T01:55:26.266Z,27.60
2023-07-12T01:56:26.463Z,27.57
2023-07-12T01:57:26.654Z,27.58
2023-07-12T01:58:26.860Z,27.55
2023-07-12T01:59:27.031Z,27.58
2023-07-12T02:00:27.237Z,27.57
2023-07-12T02:01:27.470Z,27.58
2023-07-12T02:02:27.698Z,27.52
2023-07-12T02:03:27.922Z,27.57
2023-07-12T02:04:27.983Z,27.57
2023-07-12T02:05:28.144Z,27.57
2023-07-12T02:06:28.365Z,27.55
2023-07-12T02:07:28.564Z,27.52
2023-07-12T02:08:28.706Z,27.55
2023-07-12T02:09:28.869Z,27.52
2023-07-12T02:10:29.068Z,27.52
2023-07-12T02:11:29.247Z,27.52
2023-07-12T02:12:29.441Z,27.51
2023-07-12T02:13:29.578Z,27.51
2023-07-12T02:14:29.800Z,27.48
2023-07-12T02:15:29.966Z,27.48
2023-07-12T02:16:30.230Z,27.49
2023-07-12T02:17:30.358Z,27.47
2023-07-12T02:18:30.540Z,27.44
2023-07-12T02:19:30.683Z,27.45
2023-07-12T02:20:30.894Z,27.45
2023-07-12T02:21:31.023Z,27.41
2023-07-12T02:22:31.219Z,27.42
2023-07-12T02:23:31.390Z,27.42
2023-07-12T02:24:31.554Z,27.42
2023-07-12T02:25:31.763Z,27.42
2023-07-12T02:26:31.937Z,27.41
2023-07-12T02:27:32.131Z,27.36
2023-07-12T02:28:32.290Z,27.39
2023-07-12T02:29:32.489Z,27.37
2023-07-12T02:30:32.699Z,27.41
2023-07-12T02:31:33.023Z,27.39
2023-07-12T02:32:33.074Z,27.41
2023-07-12T02:33:33.233Z,27.36
2023-07-12T02:34:33.419Z,27.41
2023-07-12T02:35:33.574Z,27.36
2023-07-12T02:36:33.743Z,27.36
2023-07-12T02:37:33.953Z,27.36
2023-07-12T02:38:34.128Z,27.36
2023-07-12T02:39:34.335Z,27.33
2023-07-12T02:40:34.506Z,27.33
2023-07-12T02:41:34.692Z,27.36
2023-07-12T02:42:34.881Z,27.36
2023-07-12T02:43:35.056Z,27.35
2023-07-12T02:44:35.270Z,27.35
2023-07-12T02:45:35.449Z,27.32
2023-07-12T02:46:35.635Z,27.32
2023-07-12T02:47:35.835Z,27.36
2023-07-12T02:48:35.973Z,27.32
2023-07-12T02:49:36.164Z,27.30
2023-07-12T02:50:36.379Z,27.30
2023-07-12T02:51:36.594Z,27.25
2023-07-12T02:52:36.748Z,27.26
2023-07-12T02:53:38.988Z,27.23
2023-07-12T02:54:37.144Z,27.21
2023-07-12T02:55:37.299Z,27.21
2023-07-12T02:56:37.495Z,27.15
2023-07-12T02:57:37.679Z,27.14
2023-07-12T02:58:38.001Z,27.15
2023-07-12T02:59:38.097Z,27.14
2023-07-12T03:00:38.284Z,27.12
2023-07-12T03:01:38.506Z,27.12
2023-07-12T03:02:38.670Z,27.11
2023-07-12T03:03:38.827Z,27.08
2023-07-12T03:04:39.027Z,27.08
2023-07-12T03:05:39.220Z,27.08
2023-07-12T03:06:39.354Z,27.08
2023-07-12T03:07:39.591Z,27.07
2023-07-12T03:08:39.806Z,27.02
2023-07-12T03:09:39.934Z,27.03
2023-07-12T03:10:40.092Z,27.03
2023-07-12T03:11:40.275Z,27.03
2023-07-12T03:12:40.496Z,27.02
2023-07-12T03:13:40.655Z,27.02
2023-07-12T03:14:40.828Z,27.03
2023-07-12T03:15:41.025Z,27.02
2023-07-12T03:16:41.261Z,27.00
2023-07-12T03:17:41.414Z,27.00
2023-07-12T03:18:41.684Z,27.02
2023-07-12T03:19:41.740Z,27.00
2023-07-12T03:20:41.896Z,26.98
2023-07-12T03:21:42.102Z,26.95
2023-07-12T03:22:42.242Z,26.98
2023-07-12T03:23:42.445Z,26.94
2023-07-12T03:24:42.602Z,26.94
2023-07-12T03:25:42.780Z,26.92
2023-07-12T03:26:42.977Z,26.94
2023-07-12T03:27:43.108Z,26.94
2023-07-12T03:28:43.299Z,26.91
2023-07-12T03:29:43.496Z,26.92
2023-07-12T03:30:43.687Z,26.89
2023-07-12T03:31:43.894Z,26.87
2023-07-12T03:32:44.059Z,26.88
2023-07-12T03:33:44.223Z,26.88
2023-07-12T03:34:44.401Z,26.88
2023-07-12T03:35:44.597Z,26.88
2023-07-12T03:36:44.793Z,26.85
2023-07-12T03:37:44.940Z,26.87
2023-07-12T03:38:45.114Z,26.85
2023-07-12T03:39:45.353Z,26.88
2023-07-12T03:40:45.507Z,26.87
2023-07-12T03:41:45.719Z,26.83
2023-07-12T03:42:45.874Z,26.85
2023-07-12T03:43:46.025Z,26.85
2023-07-12T03:44:46.203Z,26.85
2023-07-12T03:45:46.391Z,26.85
2023-07-12T03:46:46.694Z,26.83
2023-07-12T03:47:46.867Z,26.83
2023-07-12T03:48:46.994Z,26.87
2023-07-12T03:49:47.166Z,26.87
2023-07-12T03:50:47.326Z,26.85
2023-07-12T03:51:47.473Z,26.87
2023-07-12T03:52:47.676Z,26.83
2023-07-12T03:53:47.881Z,26.83
2023-07-12T03:54:48.052Z,26.87
2023-07-12T03:55:48.198Z,26.83
2023-07-12T03:56:48.397Z,26.85
2023-07-12T03:57:48.568Z,26.85
2023-07-12T03:58:48.765Z,26.85
2023-07-12T03:59:48.949Z,26.83
2023-07-12T04:00:49.172Z,26.87
2023-07-12T04:01:49.306Z,26.88
2023-07-12T04:02:49.602Z,26.88
2023-07-12T04:03:49.716Z,26.89
2023-07-12T04:04:49.865Z,26.92
2023-07-12T04:05:50.070Z,26.89
2023-07-12T04:06:50.200Z,26.89
2023-07-12T04:07:50.401Z,26.91
2023-07-12T04:08:50.636Z,26.89
2023-07-12T04:09:50.813Z,26.92
2023-07-12T04:10:50.980Z,26.97
2023-07-12T04:11:51.184Z,26.94
2023-07-12T04:12:51.357Z,26.94
2023-07-12T04:13:51.541Z,26.94
2023-07-12T04:14:51.744Z,26.98
2023-07-12T04:15:51.902Z,26.94
2023-07-12T04:16:52.106Z,26.97
2023-07-12T04:17:52.298Z,26.98
2023-07-12T04:18:52.434Z,26.95
2023-07-12T04:19:52.589Z,26.98
2023-07-12T04:20:52.798Z,27.00
2023-07-12T04:21:52.987Z,27.03
2023-07-12T04:22:53.171Z,27.05
2023-07-12T04:23:53.338Z,27.05
2023-07-12T04:24:53.547Z,27.03
2023-07-12T04:25:53.752Z,27.07
2023-07-12T04:26:53.917Z,27.07
2023-07-12T04:27:54.092Z,27.11
2023-07-12T04:28:54.282Z,27.11
2023-07-12T04:29:54.449Z,27.14
2023-07-12T04:30:54.669Z,27.14
2023-07-12T04:31:54.822Z,27.14
2023-07-12T04:32:55.037Z,27.14
2023-07-12T04:33:55.182Z,27.17
2023-07-12T04:34:55.396Z,27.17
2023-07-12T04:35:55.570Z,27.18
2023-07-12T04:36:55.714Z,27.14
2023-07-12T04:37:55.901Z,27.14
2023-07-12T04:38:56.097Z,27.14
2023-07-12T04:39:56.270Z,27.14
2023-07-12T04:40:56.485Z,27.18
2023-07-12T04:41:56.627Z,27.17
2023-07-12T04:42:56.801Z,27.15
2023-07-12T04:43:56.986Z,27.15
2023-07-12T04:44:57.188Z,27.12
2023-07-12T04:45:57.417Z,27.14
2023-07-12T04:46:57.652Z,27.14
2023-07-12T04:47:57.758Z,27.12
2023-07-12T04:48:57.958Z,27.14
2023-07-12T04:49:58.142Z,27.11
2023-07-12T04:50:58.339Z,27.11
2023-07-12T04:51:58.551Z,27.14
2023-07-12T04:52:58.717Z,27.14
2023-07-12T04:53:58.902Z,27.15
2023-07-12T04:54:59.123Z,27.15
2023-07-12T04:55:59.277Z,27.15
2023-07-12T04:56:59.496Z,27.17
2023-07-12T04:57:59.641Z,27.14
2023-07-12T04:58:59.854Z,27.15
2023-07-12T05:00:00.054Z,27.17
2023-07-12T05:01:00.316Z,27.17
2023-07-12T05:02:00.430Z,27.17
2023-07-12T05:03:00.701Z,27.20
2023-07-12T05:04:00.832Z,27.20
2023-07-12T05:05:00.984Z,27.20
2023-07-12T05:06:13.479Z,27.23
2023-07-12T05:07:02.382Z,27.26
2023-07-12T05:08:01.545Z,27.27
2023-07-12T05:09:01.736Z,27.29
2023-07-12T05:10:01.951Z,27.30
2023-07-12T05:11:02.137Z,27.29
2023-07-12T05:12:02.316Z,27.30
2023-07-12T05:13:02.492Z,27.29
2023-07-12T05:14:02.650Z,27.32
2023-07-12T05:15:04.015Z,27.35
2023-07-12T05:16:03.023Z,27.32
2023-07-12T05:17:03.262Z,27.36
2023-07-12T05:18:03.439Z,27.39
2023-07-12T05:19:03.624Z,27.37
2023-07-12T05:20:03.823Z,27.37
2023-07-12T05:21:03.945Z,27.37
2023-07-12T05:22:04.134Z,27.42
2023-07-12T05:23:04.313Z,27.44
2023-07-12T05:24:04.460Z,27.44
2023-07-12T05:25:04.672Z,27.48
2023-07-12T05:26:04.843Z,27.48
2023-07-12T05:27:05.062Z,27.51
2023-07-12T05:28:05.244Z,27.57
2023-07-12T05:29:05.558Z,27.55
2023-07-12T05:30:05.622Z,27.57
2023-07-12T05:31:05.862Z,27.60
2023-07-12T05:32:06.009Z,27.62
2023-07-12T05:33:06.232Z,27.63
2023-07-12T05:34:06.401Z,27.66
2023-07-12T05:35:06.541Z,27.64
2023-07-12T05:36:06.800Z,27.69
2023-07-12T05:37:06.957Z,27.66
2023-07-12T05:38:07.082Z,27.71
2023-07-12T05:39:07.308Z,27.69
2023-07-12T05:40:07.508Z,27.73
2023-07-12T05:41:07.668Z,27.74
2023-07-12T05:42:07.831Z,27.74
2023-07-12T05:43:08.003Z,27.78
2023-07-12T05:44:08.204Z,27.82
2023-07-12T05:45:08.407Z,27.82
2023-07-12T05:46:08.619Z,27.85
2023-07-12T05:47:08.803Z,27.86
2023-07-12T05:48:08.936Z,27.88
2023-07-12T05:49:09.143Z,27.86
2023-07-12T05:50:09.344Z,27.91
2023-07-12T05:51:10.050Z,27.92
2023-07-12T05:52:09.701Z,27.94
2023-07-12T05:53:09.926Z,27.97
2023-07-12T05:54:10.083Z,28.01
2023-07-12T05:55:10.316Z,27.99
2023-07-12T05:56:10.479Z,28.01
2023-07-12T05:57:10.640Z,28.01
2023-07-12T05:58:10.841Z,28.01
2023-07-12T05:59:11.050Z,28.07
2023-07-12T06:00:11.224Z,28.03
2023-07-12T06:01:11.974Z,28.08
2023-07-12T06:02:11.712Z,28.10
2023-07-12T06:03:11.869Z,28.11
2023-07-12T06:04:12.033Z,28.13
2023-07-12T06:05:12.154Z,28.16
2023-07-12T06:06:12.351Z,28.16
2023-07-12T06:07:12.546Z,28.16
2023-07-12T06:08:12.712Z,28.19
2023-07-12T06:09:12.949Z,28.21
2023-07-12T06:10:13.089Z,28.22
2023-07-12T06:11:13.455Z,28.23
2023-07-12T06:12:13.455Z,28.28
2023-07-12T06:13:13.607Z,28.29
2023-07-12T06:14:13.819Z,28.26
2023-07-12T06:15:14.069Z,28.28
2023-07-12T06:16:14.245Z,28.30
2023-07-12T06:17:14.473Z,28.32
2023-07-12T06:18:14.725Z,28.34
2023-07-12T06:19:14.714Z,28.40
2023-07-12T06:20:14.910Z,28.40
2023-07-12T06:21:15.102Z,28.42
2023-07-12T06:22:15.265Z,28.48
2023-07-12T06:23:15.497Z,28.54
2023-07-12T06:24:15.626Z,28.56
2023-07-12T06:25:15.804Z,28.59
2023-07-12T06:26:16.067Z,28.63
2023-07-12T06:27:16.168Z,28.67
2023-07-12T06:28:16.399Z,28.63
2023-07-12T06:29:16.566Z,28.68
2023-07-12T06:30:16.773Z,28.72
2023-07-12T06:31:16.967Z,28.75
2023-07-12T06:32:17.077Z,28.78
2023-07-12T06:33:17.281Z,28.78
2023-07-12T06:34:17.437Z,28.83
2023-07-12T06:35:17.644Z,28.83
2023-07-12T06:36:17.824Z,28.85
2023-07-12T06:37:17.994Z,28.88
2023-07-12T06:38:18.211Z,28.93
2023-07-12T06:39:18.375Z,28.94
2023-07-12T06:40:18.546Z,28.97
2023-07-12T06:41:18.725Z,29.00
2023-07-12T06:42:18.943Z,29.04
2023-07-12T06:43:19.128Z,29.09
2023-07-12T06:44:19.244Z,29.12
2023-07-12T06:45:19.434Z,29.15
2023-07-12T06:46:19.692Z,29.18
2023-07-12T06:47:19.808Z,29.22
2023-07-12T06:48:20.029Z,29.27
2023-07-12T06:49:20.197Z,29.30
2023-07-12T06:50:20.342Z,29.35
2023-07-12T06:51:20.529Z,29.38
2023-07-12T06:52:20.714Z,29.40
2023-07-12T06:53:20.917Z,29.41
2023-07-12T06:54:21.099Z,29.45
2023-07-12T06:55:21.278Z,29.46
2023-07-12T06:56:21.474Z,29.46
2023-07-12T06:57:21.666Z,29.47
2023-07-12T06:58:21.887Z,29.50
2023-07-12T06:59:22.039Z,29.47
2023-07-12T07:00:22.244Z,29.54
2023-07-12T07:01:22.458Z,29.50
2023-07-12T07:02:22.620Z,29.54
2023-07-12T07:03:22.800Z,29.53
2023-07-12T07:04:23.040Z,29.56
2023-07-12T07:05:23.140Z,29.59
2023-07-12T07:06:23.359Z,29.57
2023-07-12T07:07:23.486Z,29.60
2023-07-12T07:08:23.795Z,29.62
2023-07-12T07:09:23.848Z,29.59
2023-07-12T07:10:24.034Z,29.59
2023-07-12T07:11:24.285Z,29.62
2023-07-12T07:12:24.440Z,29.64
2023-07-12T07:13:24.620Z,29.64
2023-07-12T07:14:24.766Z,29.62
2023-07-12T07:15:24.961Z,29.62
2023-07-12T07:16:25.203Z,29.62
2023-07-12T07:17:25.347Z,29.60
2023-07-12T07:18:25.705Z,29.60
2023-07-12T07:19:25.706Z,29.64
2023-07-12T07:20:25.925Z,29.64
2023-07-12T07:21:26.064Z,29.68
2023-07-12T07:22:26.262Z,29.69
2023-07-12T07:23:26.444Z,29.72
2023-07-12T07:24:26.616Z,29.72
2023-07-12T07:25:26.827Z,29.76
2023-07-12T07:26:26.976Z,29.78
2023-07-12T07:27:27.173Z,29.79
2023-07-12T07:28:27.354Z,29.76
2023-07-12T07:29:27.560Z,29.84
2023-07-12T07:30:27.737Z,29.88
2023-07-12T07:31:27.942Z,29.90
2023-07-12T07:32:28.165Z,29.91
2023-07-12T07:33:28.318Z,29.92
2023-07-12T07:34:28.457Z,29.97
2023-07-12T07:35:28.646Z,29.99
2023-07-12T07:36:28.856Z,30.03
2023-07-12T07:37:29.031Z,30.06
2023-07-12T07:38:29.232Z,30.12
2023-07-12T07:39:29.393Z,30.13
2023-07-12T07:40:29.559Z,30.19
2023-07-12T07:41:29.745Z,30.24
2023-07-12T07:42:29.944Z,30.24
2023-07-12T07:43:30.122Z,30.29
2023-07-12T07:44:30.280Z,30.31
2023-07-12T07:45:30.444Z,30.35
2023-07-12T07:46:30.685Z,30.36
2023-07-12T07:47:30.862Z,30.43
2023-07-12T07:48:31.036Z,30.40
2023-07-12T07:49:31.202Z,30.43
2023-07-12T07:50:31.417Z,30.46
2023-07-12T07:51:31.576Z,30.47
2023-07-12T07:52:31.825Z,30.49
2023-07-12T07:53:32.036Z,30.47
2023-07-12T07:54:32.145Z,30.49
2023-07-12T07:55:32.329Z,30.47
2023-07-12T07:56:32.543Z,30.53
2023-07-12T07:57:32.672Z,30.51
2023-07-12T07:58:32.884Z,30.50
2023-07-12T07:59:33.057Z,30.53
2023-07-12T08:00:33.266Z,30.53
2023-07-12T08:01:33.454Z,30.56
2023-07-12T08:02:33.747Z,30.54
2023-07-12T08:03:34.032Z,30.62
2023-07-12T08:04:34.084Z,30.63
2023-07-12T08:05:34.149Z,30.62
2023-07-12T08:06:34.358Z,30.63
2023-07-12T08:07:34.494Z,30.63
2023-07-12T08:08:34.716Z,30.65
2023-07-12T08:09:34.934Z,30.65
2023-07-12T08:10:35.108Z,30.68
2023-07-12T08:11:36.785Z,30.66
2023-07-12T08:12:35.425Z,30.65
2023-07-12T08:13:35.614Z,30.68
2023-07-12T08:14:35.811Z,30.69
2023-07-12T08:15:36.010Z,30.72
2023-07-12T08:16:36.200Z,30.72
2023-07-12T08:17:36.372Z,30.76
2023-07-12T08:18:36.636Z,30.77
2023-07-12T08:19:36.725Z,30.83
2023-07-12T08:20:36.965Z,30.81
2023-07-12T08:21:37.106Z,30.80
2023-07-12T08:22:37.303Z,30.78
2023-07-12T08:23:37.490Z,30.81
2023-07-12T08:24:37.669Z,30.81
2023-07-12T08:25:37.862Z,30.80
2023-07-12T08:26:38.043Z,30.80
2023-07-12T08:27:38.251Z,30.81
2023-07-12T08:28:38.391Z,30.81
2023-07-12T08:29:38.564Z,30.83
2023-07-12T08:30:38.764Z,30.81
2023-07-12T08:31:38.950Z,30.84
2023-07-12T08:32:39.183Z,30.87
2023-07-12T08:33:39.337Z,30.87
2023-07-12T08:34:39.478Z,30.87
2023-07-12T08:35:48.097Z,30.91
2023-07-12T08:36:40.816Z,30.95
2023-07-12T08:37:39.991Z,30.99
2023-07-12T08:38:40.164Z,30.99
2023-07-12T08:39:40.380Z,31.00
2023-07-12T08:40:40.579Z,30.99
2023-07-12T08:41:40.739Z,30.99
2023-07-12T08:42:40.895Z,30.98
2023-07-12T08:43:41.074Z,30.96
2023-07-12T08:44:41.244Z,30.93
2023-07-12T08:45:41.502Z,30.93
2023-07-12T08:46:41.602Z,30.90
2023-07-12T08:47:41.799Z,30.93
2023-07-12T08:48:41.968Z,30.96
2023-07-12T08:49:42.131Z,30.96
2023-07-12T08:50:42.329Z,30.96
2023-07-12T08:51:44.763Z,30.93
2023-07-12T08:52:42.728Z,30.96
2023-07-12T08:53:42.908Z,30.96
2023-07-12T08:54:43.098Z,30.99
2023-07-12T08:55:43.291Z,30.98
2023-07-12T08:56:43.457Z,31.02
2023-07-12T08:57:43.608Z,31.00
2023-07-12T08:58:43.777Z,31.00
2023-07-12T08:59:43.980Z,31.00
2023-07-12T09:00:44.195Z,31.02
2023-07-12T09:01:44.447Z,31.05
2023-07-12T09:02:44.527Z,31.07
2023-07-12T09:03:44.708Z,31.07
2023-07-12T09:04:44.910Z,31.07
2023-07-12T09:05:45.117Z,31.09
2023-07-12T09:06:45.229Z,31.11
2023-07-12T09:07:45.413Z,31.09
2023-07-12T09:08:45.583Z,31.09
2023-07-12T09:09:45.779Z,31.09
2023-07-12T09:10:45.984Z,31.12
2023-07-12T09:11:46.203Z,31.15
2023-07-12T09:12:46.311Z,31.14
2023-07-12T09:13:46.494Z,31.14
2023-07-12T09:14:48.754Z,31.21
2023-07-12T09:15:46.840Z,31.20
2023-07-12T09:16:47.062Z,31.22
2023-07-12T09:17:47.256Z,31.22
2023-07-12T09:18:47.443Z,31.24
2023-07-12T09:19:47.600Z,31.26
2023-07-12T09:20:47.759Z,31.31
2023-07-12T09:21:48.438Z,31.31
2023-07-12T09:22:48.119Z,31.35
2023-07-12T09:23:48.319Z,31.37
2023-07-12T09:24:48.502Z,31.43
2023-07-12T09:25:48.714Z,31.44
2023-07-12T09:26:48.881Z,31.49
2023-07-12T09:27:49.056Z,31.50
2023-07-12T09:28:49.233Z,31.53
2023-07-12T09:29:49.405Z,31.56
2023-07-12T09:30:49.586Z,31.56
2023-07-12T09:31:49.816Z,31.62
2023-07-12T09:32:50.031Z,31.62
2023-07-12T09:33:50.125Z,31.65
2023-07-12T09:34:50.303Z,31.66
2023-07-12T09:35:50.502Z,31.66
2023-07-12T09:36:50.698Z,31.72
2023-07-12T09:37:50.884Z,31.75
2023-07-12T09:38:51.033Z,31.77
2023-07-12T09:39:51.226Z,31.78
2023-07-12T09:40:51.415Z,31.82
2023-07-12T09:41:52.030Z,31.86
2023-07-12T09:42:51.815Z,31.90
2023-07-12T09:43:51.987Z,31.94
2023-07-12T09:44:52.128Z,31.96
2023-07-12T09:46:09.352Z,32.01
2023-07-12T09:46:53.580Z,32.05
2023-07-12T09:47:52.738Z,32.08
2023-07-12T09:48:52.884Z,32.15
2023-07-12T09:49:53.067Z,32.18
2023-07-12T09:50:53.220Z,32.26
2023-07-12T09:51:53.439Z,32.28
2023-07-12T09:52:53.613Z,32.31
2023-07-12T09:53:53.775Z,32.38
2023-07-12T09:54:53.967Z,32.37
2023-07-12T09:55:54.169Z,32.40
2023-07-12T09:56:54.321Z,32.45
2023-07-12T09:57:54.552Z,32.49
2023-07-12T09:58:54.694Z,32.50
2023-07-12T09:59:54.884Z,32.55
2023-07-12T10:00:55.081Z,32.60
2023-07-12T10:01:55.355Z,32.65
2023-07-12T10:02:55.505Z,32.72
2023-07-12T10:03:58.123Z,32.72
2023-07-12T10:04:55.844Z,32.78
2023-07-12T10:05:56.019Z,32.83
2023-07-12T10:06:56.192Z,32.86
2023-07-12T10:07:56.344Z,32.90
2023-07-12T10:08:56.554Z,32.98
2023-07-12T10:09:56.711Z,32.99
2023-07-12T10:10:56.880Z,33.05
2023-07-12T10:11:57.066Z,33.06
2023-07-12T10:12:57.273Z,33.09
2023-07-12T10:13:57.454Z,33.17
2023-07-12T10:14:57.690Z,33.18
2023-07-12T10:15:57.785Z,33.24
2023-07-12T10:16:58.010Z,33.27
2023-07-12T10:17:58.303Z,33.32
2023-07-12T10:18:58.557Z,33.34
2023-07-12T10:19:58.559Z,33.37
2023-07-12T10:20:58.734Z,33.42
2023-07-12T10:21:58.907Z,33.49
2023-07-12T10:22:59.100Z,33.52
2023-07-12T10:23:59.246Z,33.58
2023-07-12T10:24:59.437Z,33.59
2023-07-12T10:25:59.626Z,33.65
2023-07-12T10:26:59.798Z,33.71
2023-07-12T10:28:00.009Z,33.74
2023-07-12T10:29:00.179Z,33.81
2023-07-12T10:30:00.344Z,33.84
2023-07-12T10:31:00.578Z,33.85
2023-07-12T10:32:00.762Z,33.91
2023-07-12T10:33:00.990Z,33.98
2023-07-12T10:34:01.136Z,34.00
2023-07-12T10:35:01.308Z,34.06
2023-07-12T10:36:01.488Z,34.12
2023-07-12T10:37:01.686Z,34.18
2023-07-12T10:38:01.866Z,34.25
2023-07-12T10:39:02.052Z,34.31
2023-07-12T10:40:02.243Z,34.40
2023-07-12T10:41:02.402Z,34.46
2023-07-12T10:42:02.587Z,34.43
2023-07-12T10:43:02.830Z,34.37
2023-07-12T10:44:02.936Z,34.31
2023-07-12T10:45:03.130Z,34.38
2023-07-12T10:46:03.368Z,34.46
2023-07-12T10:47:03.558Z,34.50
2023-07-12T10:48:03.762Z,34.56
2023-07-12T10:49:03.886Z,34.64
2023-07-12T10:50:04.110Z,34.69
2023-07-12T10:51:04.264Z,34.72
2023-07-12T10:52:04.460Z,34.75
2023-07-12T10:53:04.718Z,34.84
2023-07-12T10:54:04.817Z,34.89
2023-07-12T10:55:05.180Z,34.94
2023-07-12T10:56:05.180Z,35.01
2023-07-12T10:57:05.354Z,35.08
2023-07-12T10:58:05.544Z,35.15
2023-07-12T10:59:05.724Z,35.23
2023-07-12T11:00:05.977Z,35.16
2023-07-12T11:01:06.197Z,35.16
2023-07-12T11:02:06.377Z,35.12
2023-07-12T11:03:06.603Z,35.09
2023-07-12T11:04:06.675Z,35.02
2023-07-12T11:05:06.837Z,35.08
2023-07-12T11:06:07.041Z,35.09
2023-07-12T11:07:07.205Z,35.13
2023-07-12T11:08:07.359Z,35.15
2023-07-12T11:09:07.555Z,35.11
2023-07-12T11:10:07.756Z,35.11
2023-07-12T11:11:08.189Z,35.15
2023-07-12T11:12:08.101Z,35.16
2023-07-12T11:13:08.282Z,35.20
2023-07-12T11:14:08.439Z,35.31
2023-07-12T11:15:08.662Z,35.33
2023-07-12T11:16:08.843Z,35.30
2023-07-12T11:17:09.180Z,35.28
2023-07-12T11:18:09.284Z,35.33
2023-07-12T11:19:09.418Z,35.33
2023-07-12T11:20:09.589Z,35.31
2023-07-12T11:21:09.930Z,35.34
2023-07-12T11:22:09.947Z,35.40
2023-07-12T11:23:10.084Z,35.40
2023-07-12T11:24:10.316Z,35.34
2023-07-12T11:25:10.448Z,35.38
2023-07-12T11:26:10.626Z,35.34
2023-07-12T11:27:10.837Z,35.35
2023-07-12T11:28:11.023Z,35.35
2023-07-12T11:29:11.243Z,35.33
2023-07-12T11:30:11.359Z,35.31
2023-07-12T11:31:11.908Z,35.33
2023-07-12T11:32:11.734Z,35.40
2023-07-12T11:33:11.971Z,35.43
2023-07-12T11:34:12.128Z,35.54
2023-07-12T11:35:12.291Z,35.50
2023-07-12T11:36:12.489Z,35.56
2023-07-12T11:37:12.674Z,35.60
2023-07-12T11:38:12.846Z,35.65
2023-07-12T11:39:13.025Z,35.68
2023-07-12T11:40:13.218Z,35.69
2023-07-12T11:41:13.433Z,35.65
2023-07-12T11:42:13.585Z,35.60
2023-07-12T11:43:13.765Z,35.58
2023-07-12T11:44:13.967Z,35.56
2023-07-12T11:45:15.126Z,35.54
2023-07-12T11:46:14.448Z,35.50
2023-07-12T11:47:14.525Z,35.53
2023-07-12T11:48:14.784Z,35.59
2023-07-12T11:49:14.873Z,35.69
2023-07-12T11:50:15.088Z,35.77
2023-07-12T11:51:15.277Z,35.73
2023-07-12T11:52:15.440Z,35.70
2023-07-12T11:53:15.632Z,35.69
2023-07-12T11:54:15.808Z,35.69
2023-07-12T11:55:16.020Z,35.75
2023-07-12T11:56:16.162Z,35.81
2023-07-12T11:57:16.341Z,35.75
2023-07-12T11:58:16.532Z,35.84
2023-07-12T11:59:16.764Z,35.85
2023-07-12T12:00:16.906Z,35.81
2023-07-12T12:01:17.044Z,35.78
2023-07-12T12:02:17.234Z,35.73
2023-07-12T12:03:17.560Z,35.70
2023-07-12T12:04:17.695Z,35.70
2023-07-12T12:05:17.923Z,35.69
2023-07-12T12:06:17.991Z,35.69
2023-07-12T12:07:18.173Z,35.73
2023-07-12T12:08:18.344Z,35.80
2023-07-12T12:09:18.582Z,35.84
2023-07-12T12:10:18.717Z,35.96
2023-07-12T12:11:18.884Z,36.06
2023-07-12T12:12:19.134Z,36.18
2023-07-12T12:13:19.376Z,36.24
2023-07-12T12:14:19.486Z,36.24
2023-07-12T12:15:19.629Z,36.16
2023-07-12T12:16:19.835Z,36.19
2023-07-12T12:17:20.051Z,36.24
2023-07-12T12:18:20.507Z,36.31
2023-07-12T12:19:20.790Z,36.36
2023-07-12T12:20:21.183Z,36.43
2023-07-12T12:21:21.312Z,36.53
2023-07-12T12:22:21.162Z,36.60
2023-07-12T12:23:21.129Z,36.67
2023-07-12T12:24:21.330Z,36.74
2023-07-12T12:25:21.534Z,36.84
2023-07-12T12:26:23.398Z,36.92
2023-07-12T12:27:21.864Z,37.00
2023-07-12T12:28:22.048Z,37.01
2023-07-12T12:29:22.286Z,37.00
2023-07-12T12:30:22.445Z,37.06
2023-07-12T12:31:22.710Z,37.16
2023-07-12T12:32:22.995Z,37.17
2023-07-12T12:33:22.981Z,37.14
2023-07-12T12:34:23.169Z,37.10
2023-07-12T12:35:23.464Z,37.06
2023-07-12T12:36:23.531Z,37.02
2023-07-12T12:37:23.751Z,37.06
2023-07-12T12:38:23.908Z,37.10
2023-07-12T12:39:24.098Z,37.05
2023-07-12T12:40:24.315Z,37.02
2023-07-12T12:41:24.460Z,36.98
2023-07-12T12:42:24.648Z,36.95
2023-07-12T12:43:24.845Z,36.98
2023-07-12T12:44:25.042Z,36.92
2023-07-12T12:45:25.218Z,36.87
2023-07-12T12:46:26.308Z,36.93
2023-07-12T12:47:25.706Z,37.00
2023-07-12T12:49:38.420Z,37.07
2023-07-12T12:53:33.655Z,37.09
2023-07-12T12:54:28.069Z,37.06
2023-07-12T12:59:45.420Z,36.98
2023-07-12T13:04:50.191Z,37.13
2023-07-12T13:04:50.459Z,36.92
2023-07-12T13:04:54.824Z,37.02
2023-07-12T13:05:33.178Z,37.19